createdAt,value
2018-07-12T00:02:01.347Z,67.40
2018-07-12T00:04:29.863Z,67.50
2018-07-12T00:06:57.367Z,67.60
2018-07-12T00:09:25.637Z,67.40
2018-07-12T00:11:52.963Z,67.40
2018-07-12T00:14:20.960Z,67.20
2018-07-12T00:16:49.532Z,67.20
2018-07-12T00:19:17.424Z,67.40
2018-07-12T00:24:12.447Z,67.40
2018-07-12T00:29:08.104Z,67.30
2018-07-12T00:31:35.563Z,67.40
2018-07-12T00:34:03.276Z,67.30
2018-07-12T00:36:30.669Z,67.30
2018-07-12T00:41:26.028Z,67.20
2018-07-12T00:43:54.613Z,67.20
2018-07-12T00:46:23.681Z,67.10
2018-07-12T00:48:52.071Z,67.10
2018-07-12T00:51:20.001Z,67.10
2018-07-12T00:53:48.406Z,67.20
2018-07-12T00:56:15.926Z,67.40
2018-07-12T01:01:11.104Z,67.20
2018-07-12T01:03:38.463Z,67.10
2018-07-12T01:06:05.927Z,67.30
2018-07-12T01:08:33.310Z,67.30
2018-07-12T01:11:00.638Z,67.10
2018-07-12T01:15:06.616Z,67.10
2018-07-12T01:17:34.304Z,67.10
2018-07-12T01:22:30.901Z,66.90
2018-07-12T01:24:58.601Z,67.00
2018-07-12T01:27:26.062Z,66.90
2018-07-12T01:29:54.200Z,67.00
2018-07-12T01:32:21.590Z,67.40
2018-07-12T01:37:17.038Z,67.40
2018-07-12T01:39:44.638Z,67.40
2018-07-12T01:42:12.128Z,67.30
2018-07-12T01:44:39.587Z,67.30
2018-07-12T01:47:07.044Z,67.40
2018-07-12T01:49:48.437Z,68.00
2018-07-12T01:52:15.995Z,66.90
2018-07-12T01:54:43.675Z,67.60
2018-07-12T01:57:11.195Z,67.50
2018-07-12T02:02:07.511Z,67.60
2018-07-12T02:04:34.901Z,67.50
2018-07-12T02:07:02.310Z,67.40
2018-07-12T02:09:30.092Z,67.40
2018-07-12T02:11:58.481Z,67.70
2018-07-12T02:14:27.151Z,67.50
2018-07-12T02:16:54.600Z,67.60
2018-07-12T02:19:21.900Z,67.50
2018-07-12T02:21:49.530Z,67.50
2018-07-12T02:24:16.931Z,67.70
2018-07-12T02:29:12.189Z,67.70
2018-07-12T02:31:39.659Z,67.90
2018-07-12T02:34:07.919Z,68.00
2018-07-12T02:36:35.276Z,68.10
2018-07-12T02:39:02.708Z,68.30
2018-07-12T02:41:30.168Z,68.30
2018-07-12T02:43:57.646Z,68.50
2018-07-12T02:46:25.065Z,68.70
2018-07-12T02:48:52.552Z,68.90
2018-07-12T02:51:19.951Z,68.80
2018-07-12T02:53:48.674Z,68.90
2018-07-12T02:56:16.235Z,68.80
2018-07-12T02:58:43.772Z,68.90
2018-07-12T03:01:11.288Z,68.70
2018-07-12T03:03:38.687Z,68.80
2018-07-12T03:06:06.860Z,68.80
2018-07-12T03:08:34.425Z,68.90
2018-07-12T03:11:02.061Z,68.80
2018-07-12T03:13:30.659Z,68.90
2018-07-12T03:15:58.169Z,69.00
2018-07-12T03:18:25.585Z,68.90
2018-07-12T03:20:53.553Z,68.80
2018-07-12T03:23:21.651Z,68.80
2018-07-12T03:25:49.126Z,68.70
2018-07-12T03:28:17.223Z,68.70
2018-07-12T03:30:45.268Z,68.60
2018-07-12T03:33:12.710Z,68.00
2018-07-12T03:35:40.181Z,68.50
2018-07-12T03:38:07.639Z,68.40
2018-07-12T03:40:35.132Z,68.50
2018-07-12T03:43:02.523Z,68.50
2018-07-12T03:45:31.116Z,68.50
2018-07-12T03:47:58.609Z,68.40
2018-07-12T03:50:26.244Z,68.40
2018-07-12T03:52:53.684Z,68.20
2018-07-12T03:55:21.096Z,68.30
2018-07-12T03:57:49.460Z,68.20
2018-07-12T04:00:16.987Z,67.90
2018-07-12T04:02:44.548Z,67.90
2018-07-12T04:05:12.404Z,67.80
2018-07-12T04:07:39.866Z,68.40
2018-07-12T04:10:07.425Z,67.60
2018-07-12T04:12:34.957Z,67.40
2018-07-12T04:15:03.353Z,67.30
2018-07-12T04:17:32.731Z,67.00
2018-07-12T04:20:01.381Z,67.10
2018-07-12T04:22:30.330Z,67.00
2018-07-12T04:24:58.857Z,67.00
2018-07-12T04:29:57.624Z,66.70
2018-07-12T04:32:26.725Z,66.60
2018-07-12T04:34:54.232Z,66.70
2018-07-12T04:39:51.628Z,66.40
2018-07-12T04:42:19.698Z,66.40
2018-07-12T04:44:47.290Z,66.00
2018-07-12T04:47:14.792Z,66.00
2018-07-12T04:49:42.259Z,66.30
2018-07-12T04:52:09.840Z,65.70
2018-07-12T04:54:37.912Z,65.60
2018-07-12T04:57:05.219Z,65.40
2018-07-12T05:02:01.729Z,65.30
2018-07-12T05:04:29.071Z,65.30
2018-07-12T05:06:57.138Z,65.40
2018-07-12T05:09:24.463Z,65.20
2018-07-12T05:11:51.775Z,65.90
2018-07-12T05:14:20.231Z,65.10
2018-07-12T05:16:47.552Z,65.00
2018-07-12T05:19:14.860Z,65.00
2018-07-12T05:21:42.185Z,65.00
2018-07-12T05:24:10.510Z,64.80
2018-07-12T05:26:37.894Z,64.50
2018-07-12T05:29:09.643Z,64.00
2018-07-12T05:31:38.602Z,63.50
2018-07-12T05:39:43.736Z,62.70
2018-07-12T05:42:12.331Z,61.00
2018-07-12T05:44:41.689Z,60.20
2018-07-12T05:49:38.382Z,59.40
2018-07-12T05:52:15.396Z,59.00
2018-07-12T05:57:39.718Z,57.70
2018-07-12T06:02:40.052Z,53.10
2018-07-12T06:05:09.748Z,52.50
2018-07-12T06:07:38.889Z,52.70
2018-07-12T06:10:09.138Z,52.80
2018-07-12T06:12:45.095Z,51.30
2018-07-12T06:15:14.145Z,50.90
2018-07-12T06:20:35.152Z,49.20
2018-07-12T06:23:04.428Z,48.20
2018-07-12T06:25:32.987Z,46.30
2018-07-12T06:28:01.559Z,43.90
2018-07-12T06:30:31.160Z,43.80
2018-07-12T06:32:59.707Z,45.00
2018-07-12T06:37:56.463Z,47.90
2018-07-12T06:40:26.065Z,48.70
2018-07-12T06:42:54.641Z,49.40
2018-07-12T06:45:23.202Z,49.30
2018-07-12T06:47:51.863Z,48.40
2018-07-12T06:50:20.398Z,45.80
2018-07-12T06:52:49.150Z,45.30
2018-07-12T06:55:17.759Z,44.90
2018-07-12T06:57:46.305Z,44.80
2018-07-12T07:00:14.848Z,45.70
2018-07-12T07:02:43.927Z,46.20
2018-07-12T07:10:09.032Z,48.70
2018-07-12T07:12:37.688Z,49.50
2018-07-12T07:15:06.281Z,50.00
2018-07-12T07:17:34.832Z,50.60
2018-07-12T07:20:03.479Z,51.70
2018-07-12T07:22:32.141Z,52.00
2018-07-12T07:25:00.808Z,52.20
2018-07-12T07:27:29.423Z,52.20
2018-07-12T07:29:58.145Z,52.50
2018-07-12T07:32:28.491Z,52.60
2018-07-12T07:34:57.158Z,52.30
2018-07-12T07:42:23.209Z,51.60
2018-07-12T07:47:20.550Z,51.70
2018-07-12T07:49:49.240Z,51.50
2018-07-12T07:52:17.876Z,50.70
2018-07-12T07:54:46.969Z,50.70
2018-07-12T07:57:15.524Z,50.40
2018-07-12T08:02:12.289Z,50.40
2018-07-12T08:04:40.755Z,50.20
2018-07-12T08:07:09.351Z,50.30
2018-07-12T08:09:37.873Z,50.70
2018-07-12T08:12:06.547Z,51.10
2018-07-12T08:14:35.067Z,51.30
2018-07-12T08:17:04.503Z,51.30
2018-07-12T08:19:33.004Z,51.30
2018-07-12T08:22:07.233Z,51.50
2018-07-12T08:24:36.375Z,51.30
2018-07-12T08:27:05.592Z,51.30
2018-07-12T08:29:34.606Z,50.60
2018-07-12T08:32:04.303Z,50.90
2018-07-12T08:34:33.184Z,51.60
2018-07-12T08:37:01.731Z,51.90
2018-07-12T08:39:30.174Z,51.70
2018-07-12T08:41:58.671Z,51.90
2018-07-12T08:44:27.912Z,51.30
2018-07-12T08:49:24.484Z,51.30
2018-07-12T08:51:53.016Z,51.10
2018-07-12T08:54:21.560Z,50.80
2018-07-12T08:56:50.119Z,50.60
2018-07-12T08:59:18.648Z,51.10
2018-07-12T09:01:47.214Z,51.00
2018-07-12T09:04:15.701Z,51.20
2018-07-12T09:06:44.306Z,51.30
2018-07-12T09:09:12.822Z,50.90
2018-07-12T09:14:09.526Z,50.40
2018-07-12T09:16:38.504Z,50.40
2018-07-12T09:19:07.184Z,50.10
2018-07-12T09:21:35.672Z,50.40
2018-07-12T09:24:04.384Z,50.30
2018-07-12T09:26:33.077Z,50.60
2018-07-12T09:29:01.716Z,50.40
2018-07-12T09:31:30.263Z,50.10
2018-07-12T09:33:58.867Z,49.90
2018-07-12T09:36:27.368Z,50.00
2018-07-12T09:38:55.934Z,49.80
2018-07-12T09:41:25.003Z,49.90
2018-07-12T09:46:22.011Z,49.90
2018-07-12T09:48:51.884Z,49.90
2018-07-12T09:53:49.808Z,50.20
2018-07-12T09:56:18.733Z,50.40
2018-07-12T10:01:20.889Z,49.30
2018-07-12T10:03:51.686Z,49.10
2018-07-12T10:06:26.922Z,48.70
2018-07-12T10:09:59.435Z,48.80
2018-07-12T10:12:28.057Z,49.00
2018-07-12T10:15:02.250Z,49.70
2018-07-12T10:17:35.966Z,49.00
2018-07-12T10:20:05.833Z,49.50
2018-07-12T10:22:34.333Z,49.20
2018-07-12T10:25:02.921Z,49.00
2018-07-12T10:27:31.476Z,49.50
2018-07-12T10:32:28.332Z,49.50
2018-07-12T10:34:56.863Z,49.60
2018-07-12T10:37:25.479Z,49.30
2018-07-12T10:39:54.061Z,48.80
2018-07-12T10:42:23.255Z,48.30
2018-07-12T10:44:51.839Z,48.30
2018-07-12T10:47:20.427Z,48.20
2018-07-12T10:49:49.175Z,48.00
2018-07-12T10:52:17.702Z,47.80
2018-07-12T10:54:46.297Z,47.80
2018-07-12T10:57:14.992Z,46.90
2018-07-12T10:59:43.559Z,46.10
2018-07-12T11:02:12.041Z,46.10
2018-07-12T11:04:40.651Z,44.80
2018-07-12T11:07:12.213Z,45.30
2018-07-12T11:09:41.854Z,44.10
2018-07-12T11:12:10.470Z,45.10
2018-07-12T11:14:39.039Z,45.50
2018-07-12T11:17:07.557Z,45.60
2018-07-12T11:19:36.150Z,45.80
2018-07-12T11:22:04.645Z,45.50
2018-07-12T11:24:33.267Z,45.60
2018-07-12T11:27:02.536Z,45.10
2018-07-12T11:29:42.554Z,44.90
2018-07-12T11:32:11.756Z,44.90
2018-07-12T11:34:40.293Z,43.70
2018-07-12T11:37:09.652Z,44.20
2018-07-12T11:39:38.114Z,44.30
2018-07-12T11:42:06.646Z,44.40
2018-07-12T11:44:35.403Z,44.10
2018-07-12T11:47:03.971Z,43.80
2018-07-12T11:49:32.543Z,43.50
2018-07-12T11:52:01.215Z,43.80
2018-07-12T11:54:29.819Z,44.30
2018-07-12T11:56:58.950Z,44.30
2018-07-12T11:59:27.503Z,43.50
2018-07-12T12:01:56.140Z,42.90
2018-07-12T12:04:24.661Z,42.90
2018-07-12T12:06:53.257Z,43.50
2018-07-12T12:09:21.820Z,43.50
2018-07-12T12:11:50.484Z,42.90
2018-07-12T12:14:19.119Z,42.90
2018-07-12T12:16:48.564Z,42.90
2018-07-12T12:19:18.070Z,43.00
2018-07-12T12:21:46.717Z,43.20
2018-07-12T12:24:15.279Z,43.10
2018-07-12T12:26:43.868Z,43.20
2018-07-12T12:29:12.453Z,43.80
2018-07-12T12:31:41.020Z,44.10
2018-07-12T12:34:09.600Z,43.90
2018-07-12T12:36:38.214Z,43.60
2018-07-12T12:39:07.280Z,43.00
2018-07-12T12:41:35.923Z,42.80
2018-07-12T12:44:04.556Z,42.10
2018-07-12T12:46:33.068Z,42.00
2018-07-12T12:49:01.535Z,41.60
2018-07-12T12:51:30.092Z,41.70
2018-07-12T12:53:58.684Z,41.60
2018-07-12T12:56:27.363Z,41.60
2018-07-12T12:58:55.999Z,41.50
2018-07-12T13:01:24.602Z,41.50
2018-07-12T13:03:53.288Z,41.60
2018-07-12T13:06:21.943Z,41.40
2018-07-12T13:08:52.019Z,41.10
2018-07-12T13:11:20.520Z,41.10
2018-07-12T13:13:49.017Z,41.10
2018-07-12T13:16:17.557Z,40.80
2018-07-12T13:18:46.098Z,41.30
2018-07-12T13:23:42.774Z,40.00
2018-07-12T13:26:11.347Z,40.00
2018-07-12T13:28:39.863Z,40.10
2018-07-12T13:31:08.347Z,40.60
2018-07-12T13:33:36.839Z,41.70
2018-07-12T13:36:05.501Z,40.80
2018-07-12T13:38:34.031Z,40.50
2018-07-12T13:43:30.791Z,39.50
2018-07-12T13:45:59.268Z,39.40
2018-07-12T13:48:27.825Z,39.10
2018-07-12T13:50:56.441Z,39.00
2018-07-12T13:53:24.919Z,38.80
2018-07-12T13:58:21.647Z,39.10
2018-07-12T14:00:50.165Z,38.90
2018-07-12T14:08:15.796Z,38.60
2018-07-12T14:13:12.641Z,38.60
2018-07-12T14:15:41.196Z,38.30
2018-07-12T14:18:10.391Z,38.10
2018-07-12T14:20:38.919Z,38.00
2018-07-12T14:23:07.485Z,37.60
2018-07-12T14:25:37.424Z,37.10
2018-07-12T14:28:05.908Z,37.50
2018-07-12T14:30:34.995Z,37.40
2018-07-12T14:35:33.048Z,37.20
2018-07-12T14:38:02.474Z,37.10
2018-07-12T14:40:31.295Z,36.60
2018-07-12T14:42:59.785Z,36.80
2018-07-12T14:45:28.253Z,36.50
2018-07-12T14:47:56.997Z,36.50
2018-07-12T14:50:25.586Z,36.30
2018-07-12T14:52:54.158Z,36.90
2018-07-12T14:55:22.703Z,36.80
2018-07-12T14:57:57.096Z,37.10
2018-07-12T15:00:25.659Z,36.80
2018-07-12T15:02:54.248Z,37.00
2018-07-12T15:05:23.297Z,38.10
2018-07-12T15:07:51.877Z,38.00
2018-07-12T15:10:20.451Z,38.10
2018-07-12T15:12:48.984Z,38.40
2018-07-12T15:15:17.686Z,38.70
2018-07-12T15:17:46.219Z,38.00
2018-07-12T15:20:16.267Z,38.00
2018-07-12T15:22:45.012Z,36.00
2018-07-12T15:25:13.587Z,35.50
2018-07-12T15:27:43.975Z,35.10
2018-07-12T15:30:12.544Z,34.80
2018-07-12T15:32:42.988Z,34.70
2018-07-12T15:35:11.660Z,34.40
2018-07-12T15:37:43.492Z,34.70
2018-07-12T15:40:16.875Z,35.00
2018-07-12T15:51:28.741Z,36.50
2018-07-12T15:53:57.871Z,36.40
2018-07-12T15:56:26.443Z,36.80
2018-07-12T16:01:23.302Z,36.10
2018-07-12T16:03:51.819Z,35.60
2018-07-12T16:06:20.389Z,36.80
2018-07-12T16:08:48.968Z,35.60
2018-07-12T16:11:17.589Z,35.90
2018-07-12T16:13:47.216Z,36.40
2018-07-12T16:16:15.805Z,35.60
2018-07-12T16:18:44.353Z,34.90
2018-07-12T16:21:13.027Z,34.80
2018-07-12T16:23:41.564Z,34.90
2018-07-12T16:28:39.264Z,35.10
2018-07-12T16:31:08.321Z,35.10
2018-07-12T16:33:36.847Z,34.80
2018-07-12T16:36:05.808Z,34.80
2018-07-12T16:41:05.399Z,35.10
2018-07-12T16:43:33.936Z,35.30
2018-07-12T16:46:02.765Z,35.00
2018-07-12T16:48:31.558Z,34.80
2018-07-12T16:51:00.244Z,34.50
2018-07-12T16:53:28.916Z,34.10
2018-07-12T16:59:45.604Z,34.10
2018-07-12T17:02:25.618Z,35.10
2018-07-12T17:10:11.903Z,34.90
2018-07-12T17:12:44.830Z,35.60
2018-07-12T17:15:14.833Z,35.70
2018-07-12T17:20:25.543Z,35.50
2018-07-12T17:22:55.993Z,35.50
2018-07-12T17:25:28.424Z,35.60
2018-07-12T17:28:03.805Z,35.50
2018-07-12T17:30:32.724Z,35.70
2018-07-12T17:33:01.293Z,35.30
2018-07-12T17:35:29.918Z,35.50
2018-07-12T17:37:58.795Z,35.60
2018-07-12T17:40:27.362Z,35.60
2018-07-12T17:42:57.115Z,36.10
2018-07-12T17:45:27.213Z,35.60
2018-07-12T17:47:56.719Z,35.40
2018-07-12T17:50:26.253Z,34.90
2018-07-12T17:52:55.657Z,35.00
2018-07-12T17:55:29.768Z,35.00
2018-07-12T17:57:58.459Z,34.80
2018-07-12T18:00:26.955Z,34.60
2018-07-12T18:02:55.456Z,34.80
2018-07-12T18:05:24.617Z,35.40
2018-07-12T18:07:53.202Z,34.50
2018-07-12T18:13:04.760Z,34.40
2018-07-12T18:18:13.363Z,35.00
2018-07-12T18:21:02.311Z,35.10
2018-07-12T18:23:31.539Z,35.40
2018-07-12T18:26:02.024Z,35.50
2018-07-12T18:28:40.277Z,35.40
2018-07-12T18:31:10.900Z,35.50
2018-07-12T18:33:40.444Z,35.80
2018-07-12T18:36:09.180Z,35.70
2018-07-12T18:38:37.878Z,35.90
2018-07-12T18:41:07.651Z,35.90
2018-07-12T18:51:01.416Z,36.40
2018-07-12T18:53:30.132Z,36.70
2018-07-12T18:55:58.851Z,36.70
2018-07-12T18:58:27.363Z,36.80
2018-07-12T19:00:56.118Z,37.10
2018-07-12T19:03:25.150Z,37.50
2018-07-12T19:05:54.813Z,37.90
2018-07-12T19:11:16.128Z,39.10
2018-07-12T19:13:45.323Z,40.30
2018-07-12T19:16:13.913Z,41.00
2018-07-12T19:18:42.696Z,41.20
2018-07-12T19:21:11.239Z,41.60
2018-07-12T19:23:39.805Z,41.60
2018-07-12T19:26:11.855Z,42.10
2018-07-12T19:32:59.959Z,42.60
2018-07-12T19:35:28.596Z,42.90
2018-07-12T19:37:57.151Z,43.30
2018-07-12T19:40:27.016Z,43.40
2018-07-12T19:42:55.588Z,43.40
2018-07-12T19:47:52.744Z,43.40
2018-07-12T19:50:30.252Z,43.60
2018-07-12T19:52:58.988Z,43.60
2018-07-12T19:55:27.847Z,43.80
2018-07-12T19:57:56.408Z,43.80
2018-07-12T20:00:25.942Z,44.00
2018-07-12T20:02:55.442Z,43.90
2018-07-12T20:05:24.032Z,43.90
2018-07-12T20:07:58.111Z,44.00
2018-07-12T20:10:27.516Z,44.00
2018-07-12T20:12:56.268Z,44.00
2018-07-12T20:15:37.545Z,44.20
2018-07-12T20:18:06.734Z,44.20
2018-07-12T20:20:40.821Z,44.30
2018-07-12T20:23:25.789Z,44.20
2018-07-12T20:26:06.488Z,44.20
2018-07-12T20:28:35.337Z,44.00
2018-07-12T20:31:06.635Z,44.10
2018-07-12T20:33:41.677Z,44.10
2018-07-12T20:36:12.492Z,43.40
2018-07-12T20:38:46.554Z,44.30
2018-07-12T20:43:55.082Z,44.40
2018-07-12T20:46:56.973Z,44.40
2018-07-12T20:49:25.769Z,44.50
2018-07-12T20:51:54.326Z,44.80
2018-07-12T20:54:52.842Z,44.70
2018-07-12T21:03:17.489Z,44.70
2018-07-12T21:08:19.680Z,44.80
2018-07-12T21:10:52.875Z,44.80
2018-07-12T21:13:28.439Z,44.80
2018-07-12T21:15:57.317Z,44.80
2018-07-12T21:18:30.957Z,44.80
2018-07-12T21:20:59.635Z,45.00
2018-07-12T21:23:28.364Z,45.00
2018-07-12T21:26:09.648Z,45.10
2018-07-12T21:28:38.272Z,45.20
2018-07-12T21:31:06.869Z,45.30
2018-07-12T21:33:35.696Z,45.30
2018-07-12T21:36:20.113Z,45.50
2018-07-12T21:39:00.927Z,45.50
2018-07-12T21:43:57.949Z,45.80
2018-07-12T21:46:26.614Z,46.00
2018-07-12T21:57:10.219Z,46.60
2018-07-12T21:59:38.808Z,46.60
2018-07-12T22:02:08.760Z,47.30
2018-07-12T22:07:33.085Z,46.70
2018-07-12T22:10:01.643Z,46.80
2018-07-12T22:20:38.820Z,47.70
2018-07-12T22:47:54.737Z,48.40
2018-07-12T22:51:05.501Z,48.40
2018-07-12T22:53:59.082Z,48.70
2018-07-12T22:56:47.292Z,49.00
2018-07-12T23:30:03.751Z,49.30
2018-07-12T23:32:32.428Z,55.40
2018-07-12T23:35:05.461Z,54.90
2018-07-12T23:37:34.004Z,54.40
2018-07-12T23:40:03.901Z,53.80
2018-07-12T23:42:33.467Z,53.50
2018-07-12T23:45:02.052Z,53.30
2018-07-12T23:49:59.379Z,53.30
2018-07-12T23:52:28.019Z,53.10
2018-07-12T23:57:25.395Z,53.10
2018-07-12T23:59:53.907Z,53.20
